Time;durP1;ratioP1;P1;durP2;ratioP2;P2;SDS_P1;SDS_P2;PMS_P1;PMS_P2;Temp;Humidity;BMP_temperature;BMP_pressure;BME280_temperature;BME280_humidity;BME280_pressure;Samples;Min_cycle;Max_cycle;Signal;HPM_P1;HPM_P2
2023/09/12 00:00:54;;;;;;;16.90;13.35;;;;;;;17.75;100.00;92614.81;5001557;28;20038;-82
2023/09/12 00:03:21;;;;;;;17.27;12.77;;;;;;;17.76;100.00;92608.41;5019323;28;20441;-82
2023/09/12 00:05:58;;;;;;;19.85;14.52;;;;;;;17.77;100.00;92615.25;5019569;28;20034;-82
2023/09/12 00:08:24;;;;;;;21.77;14.43;;;;;;;17.77;100.00;92620.56;5002075;28;20038;-83
2023/09/12 00:11:06;;;;;;;22.63;14.20;;;;;;;17.75;100.00;92617.44;5018643;28;20121;-82
2023/09/12 00:13:32;;;;;;;20.33;14.30;;;;;;;17.76;100.00;92610.28;5021114;28;20029;-82
2023/09/12 00:15:58;;;;;;;18.70;14.45;;;;;;;17.75;100.00;92611.38;5034364;28;20087;-82
2023/09/12 00:18:24;;;;;;;23.30;13.85;;;;;;;17.76;100.00;92613.69;5018586;28;20431;-83
2023/09/12 00:20:51;;;;;;;21.98;13.90;;;;;;;17.77;100.00;92603.91;5018461;28;20075;-83
2023/09/12 00:23:17;;;;;;;20.40;14.48;;;;;;;17.75;100.00;92604.22;5018228;28;20514;-83
2023/09/12 00:25:43;;;;;;;19.92;14.35;;;;;;;17.75;100.00;92606.09;5022456;28;20121;-82
2023/09/12 00:28:08;;;;;;;21.17;14.80;;;;;;;17.75;100.00;92612.16;5017143;28;20038;-82
2023/09/12 00:30:34;;;;;;;19.25;14.45;;;;;;;17.73;100.00;92603.00;5006601;28;20043;-82
2023/09/12 00:33:00;;;;;;;17.58;14.40;;;;;;;17.74;100.00;92604.53;4989408;28;20124;-82
2023/09/12 00:35:25;;;;;;;21.98;14.55;;;;;;;17.74;100.00;92599.25;5017129;28;20500;-82
2023/09/12 00:37:51;;;;;;;20.15;14.80;;;;;;;17.73;100.00;92603.75;4987951;28;20039;-82
2023/09/12 00:40:16;;;;;;;23.20;14.27;;;;;;;17.72;100.00;92602.22;5007155;28;20120;-81
2023/09/12 00:42:42;;;;;;;22.50;14.07;;;;;;;17.73;100.00;92592.41;4987999;28;20145;-81
2023/09/12 00:45:08;;;;;;;19.42;14.25;;;;;;;17.69;100.00;92590.41;4981377;28;20038;-83
2023/09/12 00:47:35;;;;;;;21.85;14.43;;;;;;;17.68;100.00;92598.69;5013179;28;20049;-82
2023/09/12 00:50:04;;;;;;;20.23;13.70;;;;;;;17.64;100.00;92595.13;4998835;28;20040;-82
2023/09/12 00:52:33;;;;;;;19.27;15.15;;;;;;;17.59;100.00;92592.72;5008667;28;20046;-82
2023/09/12 00:54:58;;;;;;;21.85;14.73;;;;;;;17.59;100.00;92595.34;5003049;28;20400;-82
2023/09/12 00:57:26;;;;;;;20.83;14.38;;;;;;;17.59;100.00;92588.19;5000079;28;20401;-82
2023/09/12 00:59:53;;;;;;;19.92;14.30;;;;;;;17.58;100.00;92591.91;5015732;28;20033;-82
2023/09/12 01:02:22;;;;;;;21.73;14.07;;;;;;;17.56;100.00;92591.50;4992239;28;20045;-82
2023/09/12 01:04:49;;;;;;;23.83;13.90;;;;;;;17.56;100.00;92591.50;4998807;28;20040;-82
2023/09/12 01:07:14;;;;;;;18.30;14.02;;;;;;;17.55;100.00;92584.63;4992444;28;20038;-82
2023/09/12 01:09:40;;;;;;;21.98;14.77;;;;;;;17.57;100.00;92585.09;5006238;28;20042;-82
2023/09/12 01:12:06;;;;;;;19.70;13.82;;;;;;;17.56;100.00;92588.84;5004468;28;20480;-82
2023/09/12 01:14:32;;;;;;;22.75;13.52;;;;;;;17.51;100.00;92582.97;4991256;28;20046;-82
2023/09/12 01:16:58;;;;;;;20.02;13.75;;;;;;;17.50;100.00;92590.13;5006347;28;20036;-81
2023/09/12 01:19:24;;;;;;;20.80;14.05;;;;;;;17.47;100.00;92599.50;5007754;28;20037;-81
2023/09/12 01:22:14;;;;;;;17.15;12.57;;;;;;;17.46;100.00;92597.94;4990539;28;20049;-82
2023/09/12 01:25:26;;;;;;;20.90;14.10;;;;;;;17.47;100.00;92602.16;5014924;28;20092;-82
2023/09/12 01:27:52;;;;;;;19.10;13.97;;;;;;;17.49;100.00;92593.88;5007047;28;20045;-82
2023/09/12 01:30:22;;;;;;;20.10;13.25;;;;;;;17.48;100.00;92587.03;4992005;28;20046;-82
2023/09/12 01:32:49;;;;;;;23.10;13.68;;;;;;;17.49;100.00;92588.56;4998079;28;20030;-82
2023/09/12 01:35:15;;;;;;;23.60;14.27;;;;;;;17.48;100.00;92587.03;4984260;28;20026;-82
2023/09/12 01:37:40;;;;;;;20.40;14.05;;;;;;;17.47;100.00;92591.56;4980388;28;20033;-81
2023/09/12 01:40:07;;;;;;;18.75;13.85;;;;;;;17.44;100.00;92588.78;4991128;28;20045;-82
2023/09/12 01:42:45;;;;;;;24.27;13.27;;;;;;;17.39;100.00;92586.34;4990227;28;20040;-81
2023/09/12 01:45:13;;;;;;;20.90;14.27;;;;;;;17.39;100.00;92596.94;5005079;28;20033;-82
2023/09/12 01:47:41;;;;;;;19.98;13.02;;;;;;;17.35;100.00;92582.81;4979668;28;20030;-81
2023/09/12 01:50:09;;;;;;;21.92;13.38;;;;;;;17.35;100.00;92594.16;4971820;28;20052;-82
2023/09/12 01:52:36;;;;;;;21.60;13.77;;;;;;;17.30;100.00;92588.31;5016281;28;20080;-81
2023/09/12 01:55:02;;;;;;;20.15;13.20;;;;;;;17.25;100.00;92587.41;4989530;28;20068;-81
2023/09/12 01:57:29;;;;;;;24.05;14.07;;;;;;;17.23;100.00;92581.66;4988865;28;20040;-82
2023/09/12 01:59:54;;;;;;;21.83;14.32;;;;;;;17.23;100.00;92584.31;4980677;28;20045;-82
2023/09/12 02:02:20;;;;;;;20.25;14.73;;;;;;;17.22;100.00;92585.38;4998949;28;20112;-82
2023/09/12 02:05:07;;;;;;;18.80;13.32;;;;;;;17.17;100.00;92582.94;5015478;28;20034;-83
2023/09/12 02:07:35;;;;;;;20.35;13.55;;;;;;;17.17;100.00;92579.53;4996790;28;20104;-83
2023/09/12 02:10:01;;;;;;;17.73;13.63;;;;;;;17.16;100.00;92581.41;4975691;28;20272;-83
2023/09/12 02:12:26;;;;;;;19.15;14.35;;;;;;;17.17;100.00;92587.47;5005425;28;20554;-82
2023/09/12 02:14:52;;;;;;;19.10;13.95;;;;;;;17.14;100.00;92580.97;5003530;28;20045;-82
2023/09/12 02:17:17;;;;;;;20.48;14.63;;;;;;;17.12;100.00;92585.03;4982227;28;20027;-82
2023/09/12 02:19:46;;;;;;;21.08;13.82;;;;;;;17.08;100.00;92582.25;4981075;28;20034;-82
2023/09/12 02:22:12;;;;;;;18.58;13.48;;;;;;;17.06;100.00;92581.78;4993653;28;20472;-82
2023/09/12 02:24:37;;;;;;;18.40;13.02;;;;;;;17.05;100.00;92581.03;5017564;28;20030;-82
2023/09/12 02:27:03;;;;;;;21.27;13.68;;;;;;;17.05;100.00;92581.03;4999355;28;20041;-83
2023/09/12 02:29:29;;;;;;;23.65;14.15;;;;;;;17.06;100.00;92579.16;5035913;28;20056;-83
2023/09/12 02:31:56;;;;;;;20.70;14.00;;;;;;;17.08;100.00;92578.84;5017148;28;20483;-83
2023/09/12 02:34:21;;;;;;;21.10;14.38;;;;;;;17.09;100.00;92580.38;5002975;28;20411;-82
2023/09/12 02:36:47;;;;;;;21.75;15.05;;;;;;;17.07;100.00;92575.44;5001998;28;20022;-81
2023/09/12 02:39:12;;;;;;;23.08;13.35;;;;;;;17.06;100.00;92576.50;5002038;28;20060;-81
2023/09/12 02:41:38;;;;;;;20.48;13.63;;;;;;;17.02;100.00;92570.31;5038211;28;20033;-81
2023/09/12 02:44:04;;;;;;;20.33;14.32;;;;;;;17.03;100.00;92569.22;5039528;28;20044;-83
2023/09/12 02:46:30;;;;;;;20.48;14.05;;;;;;;17.03;100.00;92570.00;5039367;28;20038;-82
2023/09/12 02:48:55;;;;;;;21.70;13.90;;;;;;;17.05;100.00;92569.69;5021072;28;20658;-82
2023/09/12 02:51:21;;;;;;;21.10;13.90;;;;;;;17.06;100.00;92558.00;5020735;28;20042;-81
2023/09/12 02:53:46;;;;;;;19.23;13.35;;;;;;;17.07;100.00;92562.19;5021935;28;20057;-82
2023/09/12 02:56:12;;;;;;;26.70;13.45;;;;;;;17.02;100.00;92559.72;5039625;28;20029;-82
2023/09/12 02:58:38;;;;;;;19.88;13.05;;;;;;;17.03;100.00;92561.28;5022200;28;20063;-81
2023/09/12 03:01:06;;;;;;;17.77;12.80;;;;;;;17.02;100.00;92563.19;5004415;28;21173;-82
2023/09/12 03:03:33;;;;;;;19.73;13.82;;;;;;;17.02;100.00;92565.03;5040116;28;20084;-81
2023/09/12 03:06:05;;;;;;;19.08;12.85;;;;;;;17.03;100.00;92570.00;5022304;28;20029;-81
2023/09/12 03:08:30;;;;;;;23.60;13.27;;;;;;;17.03;100.00;92571.88;5022438;28;20065;-82
2023/09/12 03:10:57;;;;;;;19.33;13.20;;;;;;;17.03;100.00;92566.59;5004675;28;20044;-82
2023/09/12 03:13:26;;;;;;;19.42;12.52;;;;;;;17.01;100.00;92563.50;5021408;28;20072;-82
2023/09/12 03:15:52;;;;;;;18.50;12.75;;;;;;;16.98;100.00;92564.91;5021153;28;20036;-82
2023/09/12 03:18:18;;;;;;;19.33;13.05;;;;;;;16.96;100.00;92561.06;5006145;28;20045;-82
2023/09/12 03:20:43;;;;;;;19.27;12.52;;;;;;;16.93;100.00;92561.69;5037667;28;20033;-82
2023/09/12 03:23:09;;;;;;;19.73;12.77;;;;;;;16.92;100.00;92554.84;5022145;28;20038;-82
2023/09/12 03:25:37;;;;;;;20.13;12.32;;;;;;;16.90;100.00;92557.03;5021789;28;20034;-81
2023/09/12 03:28:04;;;;;;;17.05;12.10;;;;;;;16.89;100.00;92551.00;5020588;28;20029;-82
2023/09/12 03:30:32;;;;;;;17.27;12.57;;;;;;;16.91;100.00;92554.09;5021107;28;20510;-83
2023/09/12 03:32:58;;;;;;;18.50;11.95;;;;;;;16.91;100.00;92553.28;5019367;28;20064;-82
2023/09/12 03:35:24;;;;;;;17.55;12.25;;;;;;;16.85;100.00;92545.56;5019692;28;20025;-81
2023/09/12 03:37:49;;;;;;;17.83;13.27;;;;;;;16.92;100.00;92554.84;5021300;28;20107;-82
2023/09/12 03:40:15;;;;;;;17.13;12.82;;;;;;;16.90;100.00;92557.03;5021054;28;20052;-83
2023/09/12 03:42:41;;;;;;;18.02;12.48;;;;;;;16.88;100.00;92553.94;5027931;28;20416;-83
2023/09/12 03:45:07;;;;;;;18.08;12.02;;;;;;;16.86;100.00;92556.91;5031868;28;20056;-81
2023/09/12 03:47:32;;;;;;;16.27;12.05;;;;;;;16.87;100.00;92557.69;5020032;28;20033;-82
2023/09/12 03:49:58;;;;;;;17.05;12.70;;;;;;;16.83;100.00;92552.28;5004817;28;20041;-82
2023/09/12 03:52:23;;;;;;;18.77;11.75;;;;;;;16.82;100.00;92550.75;5035932;28;20037;-81
2023/09/12 03:54:49;;;;;;;17.02;11.15;;;;;;;16.82;100.00;92548.88;5021726;28;20104;-82
2023/09/12 03:57:15;;;;;;;15.25;11.60;;;;;;;16.80;100.00;92545.00;5004714;28;20038;-81
2023/09/12 03:59:41;;;;;;;17.85;12.25;;;;;;;16.78;100.00;92542.63;5004595;28;20080;-81
2023/09/12 04:02:07;;;;;;;18.58;12.13;;;;;;;16.78;100.00;92544.53;5018581;28;20515;-82
2023/09/12 04:04:32;;;;;;;21.17;12.82;;;;;;;16.79;100.00;92552.13;5020242;28;20048;-82
2023/09/12 04:06:58;;;;;;;19.70;12.57;;;;;;;16.73;100.00;92553.41;5020319;28;20061;-82
2023/09/12 04:09:24;;;;;;;17.55;12.68;;;;;;;16.72;100.00;92556.38;5037293;28;20037;-82
2023/09/12 04:11:49;;;;;;;20.92;12.27;;;;;;;16.68;100.00;92560.75;5037590;28;20034;-81
2023/09/12 04:14:15;;;;;;;17.30;12.60;;;;;;;16.63;100.00;92556.44;5035851;28;20535;-86
2023/09/12 04:16:41;;;;;;;19.02;12.73;;;;;;;16.59;100.00;92558.94;5018785;28;20099;-81
2023/09/12 04:19:06;;;;;;;20.40;12.82;;;;;;;16.54;100.00;92559.13;5011387;28;20041;-83
2023/09/12 04:21:32;;;;;;;20.83;12.30;;;;;;;16.50;100.00;92558.22;5009454;28;20038;-82
2023/09/12 04:23:57;;;;;;;21.75;12.73;;;;;;;16.53;100.00;92562.09;4995054;28;20033;-84
2023/09/12 04:26:23;;;;;;;20.52;13.57;;;;;;;16.54;100.00;92571.56;5014567;28;20033;-78
2023/09/12 04:28:50;;;;;;;20.58;13.93;;;;;;;16.50;100.00;92575.94;5035197;28;20056;-84
2023/09/12 04:31:15;;;;;;;20.30;14.73;;;;;;;16.44;100.00;92556.88;5017651;28;20546;-82
2023/09/12 04:33:41;;;;;;;24.77;14.30;;;;;;;16.47;100.00;92571.31;4998353;28;20069;-83
2023/09/12 04:36:06;;;;;;;22.52;14.55;;;;;;;16.45;100.00;92564.47;4994967;28;20041;-82
2023/09/12 04:38:37;;;;;;;22.13;15.00;;;;;;;16.48;100.00;92572.84;4983301;28;20084;-83
2023/09/12 04:41:04;;;;;;;20.98;14.98;;;;;;;16.48;100.00;92567.56;5015198;28;20049;-83
2023/09/12 04:43:31;;;;;;;22.90;14.50;;;;;;;16.50;100.00;92570.66;5019455;28;20038;-83
2023/09/12 04:45:57;;;;;;;20.33;14.95;;;;;;;16.49;100.00;92574.41;5035725;28;20033;-82
2023/09/12 04:48:23;;;;;;;22.35;14.75;;;;;;;16.50;100.00;92575.94;5027613;28;20092;-82
2023/09/12 04:50:49;;;;;;;22.38;15.43;;;;;;;16.52;100.00;92569.22;4999019;28;20048;-83
2023/09/12 04:53:15;;;;;;;22.60;15.32;;;;;;;16.51;100.00;92572.22;5015399;28;20427;-83
2023/09/12 04:55:41;;;;;;;27.17;14.95;;;;;;;16.52;100.00;92563.94;5008606;28;20038;-81
2023/09/12 04:58:07;;;;;;;19.77;15.10;;;;;;;16.57;100.00;92571.72;5012662;28;20036;-81
2023/09/12 05:00:33;;;;;;;20.77;15.73;;;;;;;16.59;100.00;92568.72;5028664;28;20041;-84
2023/09/12 05:03:00;;;;;;;22.88;16.48;;;;;;;16.62;100.00;92570.75;5006780;28;20041;-83
2023/09/12 05:05:25;;;;;;;26.58;16.73;;;;;;;16.63;100.00;92567.75;5000561;28;20045;-85
2023/09/12 05:07:53;;;;;;;26.45;16.13;;;;;;;16.67;100.00;92570.56;5017731;28;20560;-84
2023/09/12 05:10:19;;;;;;;22.65;16.20;;;;;;;16.69;100.00;92573.66;5035482;28;20033;-84
2023/09/12 05:12:45;;;;;;;27.13;16.85;;;;;;;16.74;100.00;92572.69;5034303;28;20044;-83
2023/09/12 05:15:11;;;;;;;26.38;17.30;;;;;;;16.75;100.00;92576.88;5004479;28;20063;-82
2023/09/12 05:17:36;;;;;;;24.92;16.30;;;;;;;16.74;100.00;92576.09;5019842;28;20029;-83
2023/09/12 05:20:04;;;;;;;21.90;16.45;;;;;;;16.78;100.00;92582.28;5037073;28;20051;-82
2023/09/12 05:22:30;;;;;;;23.80;16.52;;;;;;;16.81;100.00;92579.03;5002602;28;20029;-84
2023/09/12 05:24:56;;;;;;;22.58;15.80;;;;;;;16.87;100.00;92578.84;5005991;28;20036;-82
2023/09/12 05:27:22;;;;;;;23.70;16.05;;;;;;;16.90;100.00;92584.25;5020756;28;20033;-82
2023/09/12 05:29:47;;;;;;;22.10;16.08;;;;;;;16.96;100.00;92585.63;5021893;28;20052;-81
2023/09/12 05:32:15;;;;;;;24.33;16.48;;;;;;;17.04;100.00;92586.63;5039896;28;20033;-82
2023/09/12 05:34:41;;;;;;;21.45;16.15;;;;;;;17.10;100.00;92587.22;5022931;28;20041;-81
2023/09/12 05:37:06;;;;;;;25.23;15.30;;;;;;;17.16;100.00;92585.94;5020229;28;20049;-80
2023/09/12 05:39:32;;;;;;;21.40;16.33;;;;;;;17.19;100.00;92585.28;4987317;28;20037;-83
2023/09/12 05:41:58;;;;;;;19.85;15.48;;;;;;;17.30;100.00;92596.25;5037695;28;20543;-80
2023/09/12 05:44:24;;;;;;;20.80;15.60;;;;;;;17.37;100.00;92602.53;5019945;28;20052;-81
2023/09/12 05:46:50;;;;;;;21.90;15.88;;;;;;;17.44;100.00;92607.31;5016824;28;20037;-80
2023/09/12 05:49:15;;;;;;;20.35;15.30;;;;;;;17.50;100.00;92611.31;5010794;28;20075;-81
2023/09/12 05:51:42;;;;;;;22.45;15.35;;;;;;;17.59;100.00;92614.66;4998551;28;20518;-81
2023/09/12 05:54:08;;;;;;;23.40;15.18;;;;;;;17.69;100.00;92619.53;4999507;28;20064;-82
2023/09/12 05:56:34;;;;;;;22.42;14.95;;;;;;;17.78;100.00;92618.66;4999154;28;20057;-82
2023/09/12 05:59:00;;;;;;;21.27;14.43;;;;;;;17.87;100.00;92619.38;4983302;28;20037;-81
2023/09/12 06:01:25;;;;;;;19.58;13.68;;;;;;;17.94;100.00;92616.97;5000453;28;20042;-79
2023/09/12 06:03:51;;;;;;;20.60;14.95;;;;;;;17.96;100.00;92619.28;5017871;28;20038;-81
2023/09/12 06:06:17;;;;;;;19.92;14.05;;;;;;;17.99;100.00;92619.41;4999703;28;20044;-80
2023/09/12 06:08:42;;;;;;;24.05;13.98;;;;;;;18.04;100.00;92621.84;5018814;28;20029;-81
2023/09/12 06:11:08;;;;;;;25.27;14.13;;;;;;;18.12;100.00;92628.13;5037953;28;20037;-81
2023/09/12 06:13:38;;;;;;;21.85;13.77;;;;;;;18.27;100.00;92626.72;5021523;28;20087;-82
2023/09/12 06:16:05;;;;;;;23.38;13.68;;;;;;;18.39;100.00;92628.63;5024534;28;20033;-82
2023/09/12 06:18:32;;;;;;;19.48;12.82;;;;;;;18.61;100.00;92636.13;5041709;28;20083;-80
2023/09/12 06:20:59;;;;;;;19.90;13.20;;;;;;;18.71;100.00;92630.38;5040312;28;20037;-80
2023/09/12 06:23:24;;;;;;;17.75;12.93;;;;;;;18.79;100.00;92635.94;5006185;28;20044;-79
2023/09/12 06:25:50;;;;;;;20.55;12.60;;;;;;;18.86;100.00;92638.78;5040290;28;20044;-80
2023/09/12 06:28:26;;;;;;;17.23;11.70;;;;;;;18.85;100.00;92629.31;5019293;28;20124;-80
2023/09/12 06:30:52;;;;;;;21.73;12.45;;;;;;;19.10;100.00;92640.63;4996821;28;20081;-80
2023/09/12 06:33:18;;;;;;;20.23;12.30;;;;;;;19.26;100.00;92630.09;5020172;28;20049;-80
2023/09/12 06:35:43;;;;;;;20.13;12.10;;;;;;;19.39;100.00;92625.53;5018449;28;20044;-81
2023/09/12 06:38:09;;;;;;;19.42;12.52;;;;;;;19.69;100.00;92624.09;5004305;28;20026;-80
2023/09/12 06:40:35;;;;;;;19.25;12.00;;;;;;;19.99;100.00;92612.31;4982706;28;20065;-80
2023/09/12 06:43:00;;;;;;;20.33;12.07;;;;;;;20.82;100.00;92615.84;4967212;28;20099;-80
2023/09/12 06:45:26;;;;;;;20.15;12.15;;;;;;;21.33;100.00;92625.66;4983950;28;20137;-80
2023/09/12 06:47:51;;;;;;;16.83;12.02;;;;;;;21.36;100.00;92631.03;4983972;28;20477;-82
2023/09/12 06:50:17;;;;;;;15.43;11.48;;;;;;;21.50;100.00;92635.16;5001329;28;20512;-79
2023/09/12 06:52:42;;;;;;;17.65;11.35;;;;;;;21.39;100.00;92632.22;5002999;28;20091;-80
2023/09/12 06:55:08;;;;;;;14.55;11.63;;;;;;;21.05;100.00;92641.78;5005387;28;20038;-79
2023/09/12 06:57:34;;;;;;;13.82;10.70;;;;;;;20.95;100.00;92638.56;5020817;28;20033;-78
2023/09/12 06:59:59;;;;;;;15.15;11.63;;;;;;;21.25;100.00;92634.63;5018999;28;20486;-79
2023/09/12 07:02:26;;;;;;;17.25;11.43;;;;;;;21.38;100.00;92638.69;5019814;28;20026;-78
2023/09/12 07:04:52;;;;;;;17.23;12.00;;;;;;;21.79;100.00;92645.22;5003631;28;20034;-80
2023/09/12 07:07:19;;;;;;;17.38;12.50;;;;;;;22.42;100.00;92643.31;4986420;28;20057;-79
2023/09/12 07:09:44;;;;;;;14.90;10.65;;;;;;;22.61;100.00;92645.16;5019203;28;20040;-78
2023/09/12 07:12:10;;;;;;;19.20;11.68;;;;;;;22.59;100.00;92648.19;5023077;28;20089;-79
2023/09/12 07:14:37;;;;;;;16.15;11.30;;;;;;;22.59;100.00;92650.84;4988948;28;20121;-79
2023/09/12 07:17:04;;;;;;;18.98;11.15;;;;;;;22.76;100.00;92651.47;5005937;28;20053;-80
2023/09/12 07:19:29;;;;;;;14.73;10.90;;;;;;;22.81;100.00;92654.63;5004439;28;20107;-79
2023/09/12 07:21:55;;;;;;;19.02;11.43;;;;;;;22.85;100.00;92658.13;4988793;28;20066;-79
2023/09/12 07:24:25;;;;;;;18.33;11.15;;;;;;;23.10;100.00;92657.72;5000921;28;20242;-79
2023/09/12 07:26:51;;;;;;;18.38;10.27;;;;;;;23.17;100.00;92660.50;5025443;28;20052;-79
2023/09/12 07:29:16;;;;;;;14.05;10.20;;;;;;;23.37;100.00;92653.16;5004372;28;20117;-79
2023/09/12 07:31:42;;;;;;;13.40;9.27;;;;;;;23.20;100.00;92656.34;5023594;28;20041;-78
2023/09/12 07:34:08;;;;;;;18.30;10.57;;;;;;;23.25;100.00;92651.44;5023291;28;20354;-79
2023/09/12 07:36:33;;;;;;;14.60;9.35;;;;;;;23.07;100.00;92653.88;4990389;28;20034;-79
2023/09/12 07:38:59;;;;;;;17.90;8.82;;;;;;;22.87;100.00;92657.75;5025977;28;20057;-79
2023/09/12 07:41:25;;;;;;;13.63;9.18;;;;;;;22.78;100.00;92658.00;5024572;28;20042;-79
2023/09/12 07:43:50;;;;;;;14.40;9.27;;;;;;;22.76;100.00;92664.81;5024991;28;20403;-78
2023/09/12 07:46:16;;;;;;;15.50;9.00;;;;;;;22.99;100.00;92668.25;5024460;28;20033;-79
2023/09/12 07:48:41;;;;;;;15.73;9.07;;;;;;;23.02;100.00;92670.22;5009178;28;20057;-80
2023/09/12 07:51:17;;;;;;;11.65;8.73;;;;;;;23.28;100.00;92656.09;5000921;28;20049;-80
2023/09/12 07:53:43;;;;;;;17.65;8.32;;;;;;;23.48;100.00;92670.09;5001293;28;20038;-79
2023/09/12 07:56:12;;;;;;;14.10;8.15;;;;;;;23.55;100.00;92673.97;5005352;28;20030;-79
2023/09/12 07:58:38;;;;;;;17.00;9.45;;;;;;;23.45;100.00;92678.81;5016837;28;20049;-82
2023/09/12 08:01:08;;;;;;;13.60;9.48;;;;;;;23.66;100.00;92677.53;5019868;28;20034;-83
2023/09/12 08:03:36;;;;;;;20.67;9.30;;;;;;;23.61;100.00;92681.28;5019444;28;20552;-79
2023/09/12 08:06:02;;;;;;;20.73;10.25;;;;;;;23.39;100.00;92682.91;5018731;28;20097;-78
2023/09/12 08:08:28;;;;;;;16.33;9.32;;;;;;;23.52;100.00;92677.38;4984174;28;20097;-81
2023/09/12 08:10:54;;;;;;;19.05;10.05;;;;;;;23.64;100.00;92682.47;5000786;28;20034;-80
2023/09/12 08:13:19;;;;;;;17.13;9.32;;;;;;;23.73;100.00;92679.53;5012076;28;20037;-80
2023/09/12 08:15:46;;;;;;;15.32;8.90;;;;;;;23.83;100.00;92687.72;5020766;28;20029;-79
2023/09/12 08:18:12;;;;;;;14.57;9.10;;;;;;;23.81;100.00;92686.53;5003410;28;20042;-80
2023/09/12 08:20:38;;;;;;;14.95;9.05;;;;;;;24.21;100.00;92685.84;5001178;28;20108;-81
2023/09/12 08:23:03;;;;;;;15.93;9.30;;;;;;;24.13;100.00;92689.56;5007330;28;20034;-80
2023/09/12 08:25:29;;;;;;;19.55;9.57;;;;;;;24.00;100.00;92686.38;5019316;28;20079;-81
2023/09/12 08:27:55;;;;;;;14.85;9.15;;;;;;;23.98;100.00;92693.22;5005816;28;20487;-81
2023/09/12 08:30:21;;;;;;;19.50;9.50;;;;;;;24.04;100.00;92691.75;5000116;28;20042;-80
2023/09/12 08:32:47;;;;;;;18.63;10.30;;;;;;;23.96;100.00;92684.78;5001076;28;20043;-80
2023/09/12 08:35:13;;;;;;;14.77;9.23;;;;;;;24.09;100.00;92678.06;5001939;28;20038;-81
2023/09/12 08:37:40;;;;;;;22.85;10.63;;;;;;;23.93;100.00;92680.94;5003614;28;20030;-78
2023/09/12 08:40:08;;;;;;;17.38;10.45;;;;;;;23.80;100.00;92683.09;5019863;28;20439;-80
2023/09/12 08:42:43;;;;;;;19.85;10.55;;;;;;;23.86;100.00;92681.63;5020303;28;20053;-79
2023/09/12 08:45:14;;;;;;;15.80;10.00;;;;;;;24.25;100.00;92678.63;5019565;28;20048;-80
2023/09/12 08:47:45;;;;;;;16.58;11.50;;;;;;;24.16;100.00;92678.16;5019778;28;20026;-80
2023/09/12 08:50:17;;;;;;;15.23;10.40;;;;;;;24.47;100.00;92684.97;5021148;28;20044;-80
2023/09/12 08:52:45;;;;;;;16.08;10.02;;;;;;;24.25;100.00;92673.28;5018600;28;20112;-79
2023/09/12 08:55:11;;;;;;;16.80;10.15;;;;;;;24.13;100.00;92683.44;5020258;28;20494;-80
2023/09/12 08:57:49;;;;;;;19.48;10.07;;;;;;;24.20;100.00;92684.28;5019865;28;20408;-80
2023/09/12 09:00:15;;;;;;;18.98;10.00;;;;;;;24.23;100.00;92672.09;5018099;28;20038;-78
2023/09/12 09:02:42;;;;;;;16.52;10.02;;;;;;;24.26;100.00;92682.81;5020377;28;20113;-80
2023/09/12 09:05:09;;;;;;;18.02;10.95;;;;;;;24.02;100.00;92688.69;5019528;28;20049;-80
2023/09/12 09:07:37;;;;;;;17.23;10.82;;;;;;;23.85;100.00;92684.69;5019825;28;20033;-79
2023/09/12 09:10:05;;;;;;;27.92;12.07;;;;;;;24.07;100.00;92680.31;5018860;28;20052;-79
2023/09/12 09:12:31;;;;;;;16.20;11.27;;;;;;;24.28;100.00;92685.91;5019556;28;20029;-80
2023/09/12 09:14:57;;;;;;;17.17;9.88;;;;;;;24.15;100.00;92692.66;5019761;28;20038;-79
2023/09/12 09:17:24;;;;;;;21.13;11.43;;;;;;;24.58;100.00;92681.63;5019408;28;20026;-80
2023/09/12 09:19:50;;;;;;;14.07;10.27;;;;;;;24.69;100.00;92682.50;5016048;28;20440;-80
2023/09/12 09:22:16;;;;;;;15.05;10.93;;;;;;;24.59;100.00;92694.66;5000813;28;20037;-80
2023/09/12 09:24:41;;;;;;;14.82;10.55;;;;;;;24.33;100.00;92686.72;5000408;28;20046;-81
2023/09/12 09:27:07;;;;;;;21.08;11.75;;;;;;;24.52;100.00;92683.88;5000572;28;20022;-80
2023/09/12 09:29:47;;;;;;;30.30;11.80;;;;;;;24.85;100.00;92672.28;5001562;28;20030;-80
2023/09/12 09:32:18;;;;;;;17.35;10.70;;;;;;;24.95;100.00;92681.56;5019197;28;20037;-80
2023/09/12 09:34:44;;;;;;;20.88;10.68;;;;;;;24.77;100.00;92685.97;5001516;28;20445;-81
2023/09/12 09:37:10;;;;;;;14.18;10.38;;;;;;;24.37;100.00;92687.53;5018789;28;20018;-80
2023/09/12 09:39:36;;;;;;;20.40;11.60;;;;;;;24.24;100.00;92681.66;4985703;28;20092;-80
2023/09/12 09:42:02;;;;;;;16.00;10.68;;;;;;;24.45;100.00;92684.56;5000959;28;20467;-80
2023/09/12 09:44:30;;;;;;;16.25;10.88;;;;;;;24.62;100.00;92693.13;5001607;28;20037;-81
2023/09/12 09:47:02;;;;;;;15.90;10.38;;;;;;;24.90;100.00;92682.69;5019374;28;20496;-80
2023/09/12 09:49:30;;;;;;;15.57;10.85;;;;;;;24.88;100.00;92684.16;5018603;28;20519;-80
2023/09/12 09:51:58;;;;;;;19.42;10.85;;;;;;;25.12;100.00;92683.56;5001346;28;20026;-80
2023/09/12 09:54:27;;;;;;;15.63;10.80;;;;;;;24.79;100.00;92689.84;5019692;28;20044;-80
2023/09/12 09:56:55;;;;;;;20.27;11.02;;;;;;;24.90;100.00;92681.88;5018265;28;20026;-78
2023/09/12 09:59:23;;;;;;;15.27;10.82;;;;;;;25.13;100.00;92687.03;5018951;28;20067;-80
2023/09/12 10:01:50;;;;;;;21.15;11.13;;;;;;;25.33;100.00;92682.19;5018311;28;20030;-80
2023/09/12 10:04:17;;;;;;;21.77;11.50;;;;;;;25.00;100.00;92683.13;5018296;28;20041;-81
2023/09/12 10:06:46;;;;;;;18.58;10.57;;;;;;;24.71;100.00;92685.56;5001574;28;20081;-81
2023/09/12 10:09:13;;;;;;;17.80;11.30;;;;;;;24.52;100.00;92681.97;5018545;28;20035;-79
2023/09/12 10:11:42;;;;;;;18.80;11.40;;;;;;;24.65;100.00;92687.81;5017900;28;20480;-80
2023/09/12 10:14:08;;;;;;;17.05;11.32;;;;;;;25.03;100.00;92683.13;5017886;28;20432;-79
2023/09/12 10:16:51;;;;;;;17.33;11.40;;;;;;;25.32;100.00;92675.31;5001237;28;20026;-80
2023/09/12 10:19:25;;;;;;;19.48;10.60;;;;;;;25.06;100.00;92678.94;5018986;28;20171;-80
2023/09/12 10:22:12;;;;;;;20.45;11.80;;;;;;;24.83;100.00;92681.84;5018486;28;20038;-80
2023/09/12 10:24:39;;;;;;;20.05;11.82;;;;;;;24.56;100.00;92681.97;5018127;28;20507;-80
2023/09/12 10:27:06;;;;;;;19.73;11.93;;;;;;;24.45;100.00;92683.75;5018646;28;20038;-78
2023/09/12 10:29:32;;;;;;;17.48;11.52;;;;;;;24.31;100.00;92681.72;5018452;28;20108;-79
2023/09/12 10:31:57;;;;;;;16.70;11.27;;;;;;;24.06;100.00;92681.47;5009059;28;20042;-79
2023/09/12 10:34:26;;;;;;;16.73;11.40;;;;;;;23.85;100.00;92682.78;4989097;28;20037;-79
2023/09/12 10:36:54;;;;;;;17.17;11.43;;;;;;;23.87;100.00;92680.50;5018573;28;20094;-80
2023/09/12 10:39:20;;;;;;;17.35;11.93;;;;;;;23.83;100.00;92682.38;5018851;28;20038;-80
2023/09/12 10:41:46;;;;;;;18.63;12.15;;;;;;;23.64;100.00;92690.50;5019308;28;20081;-80
2023/09/12 10:44:23;;;;;;;18.00;11.73;;;;;;;23.77;100.00;92683.81;5016836;28;20072;-79
2023/09/12 10:46:50;;;;;;;21.02;12.15;;;;;;;23.77;100.00;92686.47;4999055;28;20038;-79
2023/09/12 10:49:16;;;;;;;15.40;12.23;;;;;;;23.98;100.00;92679.84;4999310;28;20074;-80
2023/09/12 10:51:45;;;;;;;15.93;10.48;;;;;;;24.06;100.00;92681.47;4981354;28;20046;-80
2023/09/12 10:54:37;;;;;;;17.73;11.85;;;;;;;24.07;100.00;92681.13;4999554;28;20062;-80
2023/09/12 10:57:07;;;;;;;17.85;12.43;;;;;;;24.20;100.00;92683.53;4988347;28;20065;-80
2023/09/12 10:59:36;;;;;;;16.42;12.43;;;;;;;23.92;100.00;92684.75;4981736;28;20113;-80
2023/09/12 11:02:31;;;;;;;13.80;11.73;;;;;;;24.08;100.00;92685.31;4985028;28;20034;-79
2023/09/12 11:05:04;;;;;;;15.27;11.25;;;;;;;23.95;100.00;92688.59;4986413;28;20042;-80
2023/09/12 11:07:35;;;;;;;17.10;10.70;;;;;;;24.14;100.00;92680.41;5001856;28;20038;-79
2023/09/12 11:10:20;;;;;;;15.05;11.60;;;;;;;24.18;100.00;92681.19;5001394;28;20038;-80